createdAt,value
2022-11-30T00:01:55.177Z,62.00
2022-11-30T00:04:23.062Z,66.70
2022-11-30T00:06:50.762Z,65.60
2022-11-30T00:09:18.889Z,68.40
2022-11-30T00:11:46.624Z,73.30
2022-11-30T00:14:14.271Z,66.80
2022-11-30T00:16:42.258Z,62.70
2022-11-30T00:19:09.923Z,64.60
2022-11-30T00:21:37.707Z,64.70
2022-11-30T00:24:06.094Z,67.30
2022-11-30T00:26:33.958Z,63.10
2022-11-30T00:29:02.022Z,75.10
2022-11-30T00:31:30.330Z,73.30
2022-11-30T00:33:58.124Z,74.30
2022-11-30T00:36:25.969Z,75.10
2022-11-30T00:38:54.481Z,70.90
2022-11-30T00:41:22.401Z,69.20
2022-11-30T00:43:50.315Z,63.80
2022-11-30T00:46:18.376Z,68.00
2022-11-30T00:48:46.234Z,71.60
2022-11-30T00:51:14.835Z,72.50
2022-11-30T00:53:42.819Z,74.10
2022-11-30T00:56:10.986Z,73.90
2022-11-30T00:58:39.314Z,75.60
2022-11-30T01:01:43.101Z,68.90
2022-11-30T01:04:11.608Z,71.30
2022-11-30T01:06:40.277Z,68.40
2022-11-30T01:09:10.337Z,72.70
2022-11-30T01:11:38.707Z,76.80
2022-11-30T01:14:06.582Z,74.40
2022-11-30T01:16:34.653Z,75.50
2022-11-30T01:19:04.038Z,81.80
2022-11-30T01:21:33.608Z,74.50
2022-11-30T01:24:02.362Z,73.00
2022-11-30T01:26:30.546Z,74.70
2022-11-30T01:28:58.211Z,68.40
2022-11-30T01:31:26.478Z,71.30
2022-11-30T01:33:55.492Z,75.70
2022-11-30T01:36:26.753Z,78.90
2022-11-30T01:38:58.641Z,79.00
2022-11-30T01:41:29.498Z,80.90
2022-11-30T01:44:20.103Z,76.40
2022-11-30T01:47:05.463Z,72.40
2022-11-30T01:49:38.293Z,74.40
2022-11-30T01:52:17.090Z,73.10
2022-11-30T01:54:51.636Z,74.80
2022-11-30T01:57:29.732Z,73.80
2022-11-30T02:00:01.759Z,79.90
2022-11-30T02:02:45.058Z,78.10
2022-11-30T02:05:13.226Z,80.40
2022-11-30T02:07:42.155Z,76.80
2022-11-30T02:10:16.033Z,72.40
2022-11-30T02:13:05.583Z,72.20
2022-11-30T02:15:55.903Z,75.60
2022-11-30T02:19:08.291Z,76.10
2022-11-30T02:21:51.730Z,83.10
2022-11-30T02:24:26.243Z,81.70
2022-11-30T02:27:10.617Z,72.30
2022-11-30T02:29:44.003Z,78.30
2022-11-30T02:32:27.761Z,81.30
2022-11-30T02:34:58.546Z,76.80
2022-11-30T02:37:29.691Z,83.50
2022-11-30T02:39:58.316Z,76.30
2022-11-30T02:42:26.026Z,78.50
2022-11-30T02:44:55.138Z,77.30
2022-11-30T02:47:46.861Z,82.70
2022-11-30T02:50:43.817Z,79.10
2022-11-30T02:53:11.751Z,87.10
2022-11-30T02:55:40.291Z,84.90
2022-11-30T02:58:08.485Z,75.90
2022-11-30T03:00:36.381Z,82.30
2022-11-30T03:03:04.328Z,89.20
2022-11-30T03:05:32.660Z,87.70
2022-11-30T03:08:00.689Z,86.20
2022-11-30T03:10:29.793Z,93.00
2022-11-30T03:12:58.910Z,96.30
2022-11-30T03:15:28.766Z,86.90
2022-11-30T03:17:57.026Z,87.10
2022-11-30T03:20:24.807Z,88.50
2022-11-30T03:22:52.744Z,87.20
2022-11-30T03:25:20.814Z,89.10
2022-11-30T03:27:48.749Z,90.90
2022-11-30T03:30:17.345Z,90.70
2022-11-30T03:32:45.015Z,82.40
2022-11-30T03:35:14.626Z,91.00
2022-11-30T03:37:42.594Z,92.50
2022-11-30T03:40:11.467Z,92.70
2022-11-30T03:42:39.592Z,93.30
2022-11-30T03:45:08.670Z,97.40
2022-11-30T03:47:38.105Z,92.90
2022-11-30T03:50:06.516Z,94.80
2022-11-30T03:52:35.949Z,93.70
2022-11-30T03:55:06.138Z,96.50
2022-11-30T03:57:34.073Z,95.10
2022-11-30T04:00:01.971Z,103.00
2022-11-30T04:02:44.516Z,106.70
2022-11-30T04:05:13.384Z,97.70
2022-11-30T04:07:41.368Z,95.40
2022-11-30T04:10:09.892Z,92.90
2022-11-30T04:12:37.843Z,81.60
2022-11-30T04:15:06.250Z,81.80
2022-11-30T04:17:33.947Z,78.80
2022-11-30T04:20:02.441Z,92.80
2022-11-30T04:22:33.857Z,87.60
2022-11-30T04:25:01.585Z,91.50
2022-11-30T04:27:29.482Z,83.30
2022-11-30T04:29:58.401Z,93.00
2022-11-30T04:32:26.056Z,85.20
2022-11-30T04:34:54.010Z,91.50
2022-11-30T04:37:22.250Z,91.90
2022-11-30T04:39:49.999Z,96.00
2022-11-30T04:42:17.774Z,105.20
2022-11-30T04:44:45.643Z,103.30
2022-11-30T04:47:13.635Z,91.80
2022-11-30T04:49:41.536Z,97.00
2022-11-30T04:52:09.401Z,97.30
2022-11-30T04:54:37.156Z,102.70
2022-11-30T04:57:06.466Z,87.70
2022-11-30T04:59:34.155Z,93.10
2022-11-30T05:02:01.934Z,87.20
2022-11-30T05:04:30.017Z,89.10
2022-11-30T05:06:57.937Z,100.20
2022-11-30T05:09:25.678Z,91.20
2022-11-30T05:11:53.710Z,96.00
2022-11-30T05:14:21.431Z,93.20
2022-11-30T05:16:50.042Z,92.80
2022-11-30T05:19:19.433Z,95.20
2022-11-30T05:21:47.187Z,96.20
2022-11-30T05:24:14.895Z,96.10
2022-11-30T05:26:42.731Z,89.10
2022-11-30T05:29:10.626Z,82.30
2022-11-30T05:31:38.813Z,77.30
2022-11-30T05:34:06.980Z,88.40
2022-11-30T05:36:34.926Z,89.60
2022-11-30T05:39:02.699Z,98.30
2022-11-30T05:41:30.714Z,89.50
2022-11-30T05:43:59.091Z,103.40
2022-11-30T05:46:26.839Z,96.60
2022-11-30T05:48:55.282Z,88.20
2022-11-30T05:51:23.630Z,93.70
2022-11-30T05:53:51.444Z,90.70
2022-11-30T05:56:21.549Z,91.80
2022-11-30T05:58:49.574Z,90.90
2022-11-30T06:01:23.698Z,95.70
2022-11-30T06:03:52.374Z,92.20
2022-11-30T06:06:20.966Z,95.70
2022-11-30T06:08:50.489Z,92.60
2022-11-30T06:11:18.659Z,102.10
2022-11-30T06:13:46.395Z,97.40
2022-11-30T06:16:14.336Z,102.50
2022-11-30T06:18:42.448Z,102.40
2022-11-30T06:21:11.527Z,93.50
2022-11-30T06:23:39.541Z,91.80
2022-11-30T06:26:10.483Z,90.40
2022-11-30T06:28:42.094Z,102.80
2022-11-30T06:31:13.537Z,98.50
2022-11-30T06:33:43.404Z,90.50
2022-11-30T06:36:11.137Z,86.80
2022-11-30T06:38:39.174Z,92.10
2022-11-30T06:41:09.074Z,91.20
2022-11-30T06:43:38.536Z,80.60
2022-11-30T06:46:07.686Z,90.10
2022-11-30T06:48:36.013Z,86.80
2022-11-30T06:51:09.016Z,89.00
2022-11-30T06:53:37.111Z,81.10
2022-11-30T06:56:10.507Z,83.60
2022-11-30T06:58:39.893Z,86.40
2022-11-30T07:01:11.011Z,84.30
2022-11-30T07:03:40.117Z,84.70
2022-11-30T07:06:10.428Z,70.90
2022-11-30T07:08:39.195Z,84.20
2022-11-30T07:11:08.640Z,77.20
2022-11-30T07:13:37.264Z,77.10
2022-11-30T07:16:06.736Z,77.00
2022-11-30T07:18:35.497Z,74.00
2022-11-30T07:21:04.967Z,74.40
2022-11-30T07:24:09.982Z,71.00
2022-11-30T07:26:37.881Z,71.60
2022-11-30T07:29:06.162Z,83.30
2022-11-30T07:31:39.215Z,79.30
2022-11-30T07:34:10.160Z,74.00
2022-11-30T07:36:37.948Z,77.10
2022-11-30T07:39:06.881Z,74.10
2022-11-30T07:41:34.796Z,86.10
2022-11-30T07:44:08.274Z,78.10
2022-11-30T07:49:35.109Z,85.90
2022-11-30T07:52:04.615Z,78.00
2022-11-30T07:57:01.003Z,82.00
2022-11-30T07:59:28.835Z,79.60
2022-11-30T08:01:56.766Z,75.80
2022-11-30T08:04:25.090Z,70.30
2022-11-30T08:06:54.742Z,81.00
2022-11-30T08:12:05.850Z,75.30
2022-11-30T08:15:18.288Z,72.80
2022-11-30T08:17:36.678Z,77.10
2022-11-30T08:20:06.438Z,73.20
2022-11-30T08:22:35.434Z,77.30
2022-11-30T08:25:06.721Z,78.50
2022-11-30T08:27:34.607Z,78.00
2022-11-30T08:30:02.823Z,69.70
2022-11-30T08:32:31.485Z,84.80
2022-11-30T08:34:59.356Z,79.80
2022-11-30T08:37:28.119Z,78.50
2022-11-30T08:39:56.823Z,79.60
2022-11-30T08:42:25.215Z,81.60
2022-11-30T08:44:53.008Z,80.50
2022-11-30T08:47:22.965Z,77.90
2022-11-30T08:49:51.001Z,78.90
2022-11-30T08:52:22.019Z,74.70
2022-11-30T08:54:50.945Z,81.80
2022-11-30T08:57:27.072Z,74.30
2022-11-30T08:59:57.350Z,71.80
2022-11-30T09:02:26.747Z,72.60
2022-11-30T09:07:23.851Z,69.90
2022-11-30T09:09:52.220Z,75.00
2022-11-30T09:13:11.122Z,68.00
2022-11-30T09:16:10.180Z,66.50
2022-11-30T09:18:39.977Z,67.20
2022-11-30T09:21:10.895Z,73.30
2022-11-30T09:23:40.013Z,70.50
2022-11-30T09:26:26.555Z,74.30
2022-11-30T09:29:00.226Z,67.80
2022-11-30T09:31:30.267Z,64.80
2022-11-30T09:34:07.029Z,65.40
2022-11-30T09:36:37.453Z,63.90
2022-11-30T09:39:06.589Z,66.50
2022-11-30T09:41:34.470Z,71.00
2022-11-30T09:44:21.414Z,69.60
2022-11-30T09:47:14.326Z,64.10
2022-11-30T09:49:47.707Z,62.50
2022-11-30T09:52:34.048Z,62.70
2022-11-30T09:55:08.195Z,61.40
2022-11-30T09:57:47.131Z,63.30
2022-11-30T10:00:22.739Z,67.30
2022-11-30T10:02:52.998Z,70.30
2022-11-30T10:05:29.945Z,61.80
2022-11-30T10:08:22.393Z,72.20
2022-11-30T10:11:11.714Z,70.60
2022-11-30T10:16:22.852Z,71.60
2022-11-30T10:19:09.569Z,64.00
2022-11-30T10:21:45.938Z,69.60
2022-11-30T10:24:35.939Z,70.50
2022-11-30T10:27:17.517Z,67.20
2022-11-30T10:29:45.496Z,68.40
2022-11-30T10:32:19.876Z,78.00
2022-11-30T10:35:04.330Z,75.60
2022-11-30T10:37:37.231Z,67.90
2022-11-30T10:40:27.101Z,65.20
2022-11-30T10:43:25.758Z,72.50
2022-11-30T10:45:53.911Z,73.40
2022-11-30T10:48:31.605Z,69.90
2022-11-30T10:51:03.881Z,73.40
2022-11-30T10:53:33.075Z,69.60
2022-11-30T10:56:11.208Z,62.10
2022-11-30T10:58:53.087Z,73.60
2022-11-30T11:01:39.454Z,67.00
2022-11-30T11:04:20.896Z,69.10
2022-11-30T11:07:09.966Z,71.50
2022-11-30T11:10:07.872Z,70.80
2022-11-30T11:12:38.734Z,75.40
2022-11-30T11:15:19.031Z,74.10
2022-11-30T11:17:49.521Z,66.30
2022-11-30T11:20:32.739Z,63.40
2022-11-30T11:25:34.328Z,66.00
2022-11-30T11:28:19.368Z,74.40
2022-11-30T11:30:48.318Z,69.50
2022-11-30T11:33:24.845Z,67.70
2022-11-30T11:36:14.769Z,64.50
2022-11-30T11:38:51.472Z,72.90
2022-11-30T11:41:31.674Z,70.30
2022-11-30T11:44:11.939Z,68.50
2022-11-30T11:46:53.894Z,68.20
2022-11-30T11:49:24.958Z,70.10
2022-11-30T11:52:14.444Z,67.60
2022-11-30T11:55:00.021Z,68.80
2022-11-30T11:57:38.489Z,64.30
2022-11-30T12:00:21.732Z,64.70
2022-11-30T12:03:19.334Z,64.30
2022-11-30T12:06:17.845Z,65.30
2022-11-30T12:09:00.296Z,64.60
2022-11-30T12:11:48.015Z,60.90
2022-11-30T12:14:18.331Z,64.90
2022-11-30T12:17:16.954Z,65.20
2022-11-30T12:20:16.535Z,57.60
2022-11-30T12:23:10.484Z,57.00
2022-11-30T12:26:23.775Z,51.10
2022-11-30T12:30:06.407Z,54.20
2022-11-30T12:32:54.133Z,54.30
2022-11-30T12:35:42.581Z,56.60
2022-11-30T12:38:35.382Z,56.20
2022-11-30T12:41:09.212Z,58.70
2022-11-30T12:43:50.746Z,65.00
2022-11-30T12:46:34.868Z,52.80
2022-11-30T12:49:31.089Z,56.40
2022-11-30T13:01:06.358Z,48.00
2022-11-30T13:03:45.224Z,44.20
2022-11-30T13:06:21.983Z,45.50
2022-11-30T13:09:18.714Z,48.90
2022-11-30T13:20:26.312Z,40.20
2022-11-30T13:23:11.903Z,35.70
2022-11-30T14:07:11.488Z,40.40
2022-11-30T14:15:48.354Z,42.30
2022-11-30T14:35:00.458Z,50.40
2022-11-30T14:41:53.159Z,42.20
2022-11-30T14:45:59.023Z,41.10
2022-11-30T15:08:26.946Z,50.60
2022-11-30T15:11:21.881Z,50.10
2022-11-30T15:33:01.864Z,47.90
2022-11-30T15:35:49.929Z,49.20
2022-11-30T15:38:26.252Z,58.80
2022-11-30T15:41:25.170Z,47.50
2022-11-30T15:43:56.560Z,51.40
2022-11-30T15:46:46.114Z,52.30
2022-11-30T15:49:23.011Z,55.60
2022-11-30T15:52:09.565Z,54.20
2022-11-30T15:54:48.250Z,56.50
2022-11-30T15:57:17.016Z,56.90
2022-11-30T16:00:01.989Z,53.30
2022-11-30T16:02:37.363Z,50.20
2022-11-30T16:05:15.676Z,50.40
2022-11-30T16:07:55.260Z,51.30
2022-11-30T16:10:39.429Z,57.30
2022-11-30T16:13:07.327Z,56.10
2022-11-30T16:15:39.165Z,57.10
2022-11-30T16:18:19.851Z,57.60
2022-11-30T16:20:53.103Z,52.90
2022-11-30T16:23:21.886Z,55.50
2022-11-30T16:25:50.349Z,48.70
2022-11-30T16:28:19.816Z,55.20
2022-11-30T16:30:47.990Z,47.40
2022-11-30T16:33:18.887Z,50.50
2022-11-30T16:36:13.161Z,51.70
2022-11-30T16:38:41.494Z,53.00
2022-11-30T16:41:19.066Z,51.90
2022-11-30T16:43:49.716Z,55.60
2022-11-30T16:46:20.970Z,52.00
2022-11-30T16:48:49.457Z,52.80
2022-11-30T16:56:11.850Z,48.00
2022-11-30T16:58:59.148Z,54.60
2022-11-30T17:01:36.255Z,50.30
2022-11-30T17:04:17.514Z,52.40
2022-11-30T17:06:50.244Z,49.90
2022-11-30T17:09:20.843Z,53.80
2022-11-30T17:11:51.181Z,51.70
2022-11-30T17:14:22.413Z,50.80
2022-11-30T17:16:50.546Z,54.30
2022-11-30T17:19:18.376Z,48.70
2022-11-30T17:21:46.519Z,53.60
2022-11-30T17:24:15.822Z,52.00
2022-11-30T17:26:45.222Z,50.10
2022-11-30T17:29:12.950Z,52.60
2022-11-30T17:31:41.001Z,48.60
2022-11-30T17:34:08.904Z,53.10
2022-11-30T17:36:36.690Z,53.20
2022-11-30T17:39:07.085Z,53.40
2022-11-30T17:41:35.442Z,52.80
2022-11-30T17:44:03.421Z,56.90
2022-11-30T17:46:32.433Z,56.20
2022-11-30T17:49:00.285Z,48.90
2022-11-30T17:51:28.550Z,51.10
2022-11-30T17:53:57.372Z,51.30
2022-11-30T17:56:26.137Z,49.90
2022-11-30T17:58:53.929Z,51.10
2022-11-30T18:01:27.476Z,45.70
2022-11-30T18:03:56.038Z,52.40
2022-11-30T18:06:24.425Z,48.50
2022-11-30T18:08:52.734Z,52.70
2022-11-30T18:11:23.799Z,50.40
2022-11-30T18:13:54.848Z,50.30
2022-11-30T18:16:25.155Z,61.80
2022-11-30T18:18:53.579Z,53.00
2022-11-30T18:21:23.192Z,53.40
2022-11-30T18:23:52.486Z,48.60
2022-11-30T18:26:22.902Z,46.60
2022-11-30T18:29:00.735Z,51.10
2022-11-30T18:31:30.246Z,50.20
2022-11-30T18:34:04.675Z,41.50
2022-11-30T18:36:33.937Z,49.00
2022-11-30T18:39:01.720Z,45.20
2022-11-30T18:41:30.649Z,48.00
2022-11-30T18:43:58.693Z,50.20
2022-11-30T18:46:26.838Z,47.20
2022-11-30T18:48:56.968Z,50.10
2022-11-30T18:51:27.901Z,42.80
2022-11-30T18:53:58.790Z,52.40
2022-11-30T18:56:28.975Z,45.30
2022-11-30T18:59:01.694Z,45.30
2022-11-30T19:01:30.972Z,46.90
2022-11-30T19:04:06.094Z,43.70
2022-11-30T19:06:36.154Z,43.50
2022-11-30T19:09:12.500Z,41.30
2022-11-30T19:11:43.017Z,43.40
2022-11-30T19:14:14.875Z,44.30
2022-11-30T19:16:47.824Z,45.80
2022-11-30T19:19:17.620Z,49.50
2022-11-30T19:21:48.197Z,46.30
2022-11-30T19:24:17.852Z,45.30
2022-11-30T19:26:47.360Z,42.90
2022-11-30T19:29:16.756Z,46.10
2022-11-30T19:31:46.119Z,44.70
2022-11-30T19:36:44.634Z,47.80
2022-11-30T19:39:13.774Z,50.20
2022-11-30T19:41:43.148Z,51.30
2022-11-30T19:44:14.930Z,47.00
2022-11-30T19:46:44.264Z,51.60
2022-11-30T19:49:13.271Z,48.60
2022-11-30T19:51:42.458Z,50.60
2022-11-30T19:54:11.560Z,53.60
2022-11-30T19:56:43.000Z,45.70
2022-11-30T19:59:12.269Z,51.00
2022-11-30T20:01:41.551Z,50.90
2022-11-30T20:04:10.697Z,43.50
2022-11-30T20:06:41.499Z,49.10
2022-11-30T20:09:11.898Z,51.40
2022-11-30T20:11:40.366Z,52.20
2022-11-30T20:14:08.258Z,50.30
2022-11-30T20:16:36.461Z,49.00
2022-11-30T20:19:04.454Z,48.90
2022-11-30T20:21:35.153Z,52.00
2022-11-30T20:24:07.007Z,42.80
2022-11-30T20:26:40.059Z,47.80
2022-11-30T20:29:12.067Z,48.20
2022-11-30T20:31:41.882Z,45.80
2022-11-30T20:34:10.823Z,46.20
2022-11-30T20:36:38.838Z,48.40
2022-11-30T20:39:07.567Z,47.00
2022-11-30T20:41:35.608Z,48.10
2022-11-30T20:44:06.328Z,48.90
2022-11-30T20:46:35.911Z,47.10
2022-11-30T20:49:17.872Z,51.10
2022-11-30T20:51:47.137Z,47.70
2022-11-30T20:54:16.525Z,49.10
2022-11-30T20:56:48.868Z,50.30
2022-11-30T20:59:22.323Z,45.10
2022-11-30T21:01:50.557Z,42.60
2022-11-30T21:04:18.461Z,46.00
2022-11-30T21:06:47.686Z,46.30
2022-11-30T21:09:17.235Z,50.50
2022-11-30T21:11:46.016Z,47.90
2022-11-30T21:14:14.518Z,43.90
2022-11-30T21:16:43.641Z,46.50
2022-11-30T21:19:13.400Z,46.60
2022-11-30T21:21:41.811Z,43.20
2022-11-30T21:24:11.669Z,40.50
2022-11-30T21:26:41.792Z,44.00
2022-11-30T21:29:12.666Z,46.80
2022-11-30T21:31:42.418Z,47.50
2022-11-30T21:34:12.277Z,49.80
2022-11-30T21:36:40.015Z,46.60
2022-11-30T21:39:12.367Z,46.80
2022-11-30T21:41:40.979Z,53.10
2022-11-30T21:44:14.763Z,53.80
2022-11-30T21:46:46.590Z,51.10
2022-11-30T21:49:16.514Z,45.80
2022-11-30T21:51:46.419Z,48.20
2022-11-30T21:54:15.497Z,41.00
2022-11-30T21:56:44.808Z,40.00
2022-11-30T22:01:44.809Z,46.80
2022-11-30T22:04:14.115Z,46.10
2022-11-30T22:06:43.160Z,53.00
2022-11-30T22:09:14.779Z,46.90
2022-11-30T22:11:45.074Z,45.20
2022-11-30T22:14:18.421Z,46.10
2022-11-30T22:16:46.426Z,43.60
2022-11-30T22:19:15.751Z,47.20
2022-11-30T22:21:49.787Z,50.30
2022-11-30T22:24:18.645Z,45.00
2022-11-30T22:26:49.161Z,48.10
2022-11-30T22:29:23.265Z,45.80
2022-11-30T22:31:53.430Z,44.70
2022-11-30T22:34:21.780Z,51.90
2022-11-30T22:36:49.612Z,46.80
2022-11-30T22:39:23.944Z,49.90
2022-11-30T22:41:55.622Z,45.30
2022-11-30T22:44:24.760Z,45.60
2022-11-30T22:46:52.886Z,44.90
2022-11-30T22:49:22.208Z,44.50
2022-11-30T22:51:53.279Z,49.10
2022-11-30T22:54:21.032Z,48.70
2022-11-30T22:56:49.089Z,46.60
2022-11-30T22:59:17.166Z,51.00
2022-11-30T23:01:50.169Z,49.80
2022-11-30T23:04:22.987Z,50.40
2022-11-30T23:06:51.143Z,48.80
2022-11-30T23:09:22.049Z,48.90
2022-11-30T23:11:51.283Z,50.00
2022-11-30T23:14:19.464Z,47.90
2022-11-30T23:16:47.996Z,43.40
2022-11-30T23:19:16.054Z,43.80
2022-11-30T23:21:46.895Z,46.60
2022-11-30T23:24:20.370Z,48.20
2022-11-30T23:26:48.912Z,45.60
2022-11-30T23:29:17.612Z,47.50
2022-11-30T23:31:46.082Z,46.10
2022-11-30T23:34:21.403Z,46.40
2022-11-30T23:36:50.161Z,46.20
2022-11-30T23:39:19.928Z,48.00
2022-11-30T23:41:47.930Z,48.00
2022-11-30T23:44:16.256Z,49.00
2022-11-30T23:46:44.445Z,38.40
2022-11-30T23:49:13.896Z,42.20
2022-11-30T23:51:43.506Z,42.60
2022-11-30T23:54:11.247Z,46.70
2022-11-30T23:56:38.956Z,47.70
2022-11-30T23:59:07.527Z,47.60
